Terminal Aerodrome Forecast
Issued by NWS Grand Junction, CO

Home | Current Version | Previous Version | Text Only | Print | Product List | Glossary On
Versions: 1 2 3 4 5 6 7 8 9 10 11 12 13 14 15 16 17 18 19 20 21 22 23 24 25 26 27 28 29 30 31 32 33 34 35 36 37 38 39
000
FTUS45 KGJT 260523
TAFGJT
TAF
KGJT 260523Z 2606/2706 12008KT P6SM VCSH SCT030 OVC050
      TEMPO 2606/2610 VRB05KT 4SM -SHRA BR FEW015 BKN030
     FM261000 13010KT P6SM -RA SCT020 OVC040
     FM261400 30008KT P6SM VCSH SCT020 BKN050
     FM261800 34008KT P6SM VCTS SCT040CB BKN080
     FM262200 32008G18KT 6SM -SHRA BKN040 OVC070=

USA.gov is the U.S. government's official web portal to all federal, state and local government web resources and services.